Park City, UT

6:49 AM MST on January 26, 2015 (GMT -0700)
Silver Summit | Change Station
CLOSE
Current Station
Personal Weather Station
Location: Park City, UT
Elevation: 6568 ft
Nearby Weather Stations

Elev 6568 ft 40.71 °N, 111.49 °W | Updated 2 minutes ago

Clear
Clear
19.8 °F
Feels Like 20 °F
N
0.0
Wind Variable Wind from North
Gusts 0.0 mph

Today
High -- | Low -- °F
--% Chance of Precip.
Yesterday
High -- | Low -- °F
Precip. -- in
7:41 AM 5:36 PM
Waxing Crescent, 43% visible
Pressure 30.44 in
Visibility 0.8 miles
Clouds
Windchill 20 °F
Dew Point 17 °F
Humidity 88%
Rainfall 0.00 in
Snow Depth Not available.
UV Not available.
Pollen .10 out of 12
Air Quality Not available.
Flu Activity Not available.
METAR K36U 261335Z AUTO 00000KT 3/4SM BR VV005 M05/M06 A3044 RMK AO2

More Conditions Fewer Conditions

Pressure 30.44 in
Visibility 0.8 miles
Clouds
Windchill 20 °F
Dew Point 17 °F
Humidity 88%
Rainfall 0.00 in
Snow Depth Not available.
UV Not available.
Pollen .10 out of 12
Air Quality Not available.
Flu Activity Not available.
METAR K36U 261335Z AUTO 00000KT 3/4SM BR VV005 M05/M06 A3044 RMK AO2

More Conditions Fewer Conditions

10-Day Weather Forecast

Almanac

Astronomy

Jan. 26, 2015 Rise Set
Actual Time
Civil Twilight
Nautical Twilight
Astronomical Twilight
Moon
Length of Visible Light
Length of Day
Tomorrow will be .
, % of the Moon is Illuminated

Today's Extremes

State Highs State Lows

Community

WunderPhotos

Upload Photos

1,790,200 photos uploaded!

WunderBlogs® & News

Nearby

Air Quality

  Air Quality AQ Index Pollutant
Not available.

Snow Depth

Station Depth Elevation

Earthquake Activity

City Distance Mag. Time & Date
Minimum magnitude displayed is 2.5.

Coastal Water Temperatures

Place Temperature

Nearby Weather Stations